map of POR home
POR - Airport
Location
City:  Pori, Satakunta (Satakunda), Finland
Name:Pori Airport
ICAO:EFPO
IATA:POR

Details
Type:Airport (Aerodrome, Airfield)
Use:International (customs port of entry)
Latitude:6127'42"N (61.461686)
Longitude:2148'00"E (21.799983)
Datum:WGS 1984
Elevation:44 ft (13 m)
Variation:8.37E (WMM2015v2 magnetic declination)
0.20 annual change
Runways:2
Longest:7713 × 197 ft (2351 × 60 m), paved

Time
Time Zone:UTC+2 (DST+3)
Local Time:

Weather
METAR:EFPO 041350Z AUTO 26007KT 230V290 8000 -SN SCT021/// OVC025/// M06/M09 Q1015

Related Locations
Nearby:
Farthest:NZTB: 11134 mi / 17918 km
Terra Nova Bay [Mario Zucchelli Station], AQ

Find:

   beyond  
but within

Other Information
Maps:
NOTAMs:
Links:
Sources:

  
  • flag of Finland
  

Sectional Chart

Flight Planning
at skyvector.com

Satellite Image

Google Maps Satellite view

 

Copyright © 2004-2019 Karl L. Swartz. All rights reserved.
The Great Circle Mapper name and logo are trademarks of the Great Circle Mapper.
All other trademarks mentioned herein belong to their respective owners.
Please see credits for attibutions and further copyright information.

  Follow gcmap on Facebook Follow gcmap on Twitter GCmap on LinkedIn

hCard Microformat

Geo Microformat